createdAt,value
2019-05-06T00:00:00.626Z,9.25
2019-05-06T00:02:28.801Z,9.98
2019-05-06T00:04:56.932Z,11.37
2019-05-06T00:07:26.607Z,11.63
2019-05-06T00:09:54.737Z,10.30
2019-05-06T00:12:23.964Z,10.90
2019-05-06T00:14:54.069Z,12.93
2019-05-06T00:17:23.932Z,12.00
2019-05-06T00:19:53.929Z,11.43
2019-05-06T00:22:23.743Z,13.75
2019-05-06T00:24:57.096Z,13.30
2019-05-06T00:27:34.234Z,12.70
2019-05-06T00:30:04.515Z,11.53
2019-05-06T00:32:34.762Z,9.73
2019-05-06T00:35:04.569Z,13.13
2019-05-06T00:37:34.762Z,10.58
2019-05-06T00:40:04.832Z,10.43
2019-05-06T00:42:36.250Z,10.75
2019-05-06T00:45:07.394Z,9.70
2019-05-06T00:47:35.618Z,10.75
2019-05-06T00:50:06.254Z,10.23
2019-05-06T00:52:34.543Z,9.58
2019-05-06T00:55:04.165Z,11.68
2019-05-06T00:57:46.481Z,10.93
2019-05-06T01:00:16.209Z,11.20
2019-05-06T01:02:44.335Z,11.25
2019-05-06T01:05:14.090Z,12.10
2019-05-06T01:07:44.104Z,12.23
2019-05-06T01:10:14.300Z,10.23
2019-05-06T01:12:44.323Z,10.15
2019-05-06T01:15:14.356Z,11.50
2019-05-06T01:17:44.361Z,9.35
2019-05-06T01:20:13.976Z,10.32
2019-05-06T01:22:43.709Z,10.65
2019-05-06T01:25:14.250Z,9.95
2019-05-06T01:27:44.401Z,10.05
2019-05-06T01:30:13.743Z,9.25
2019-05-06T01:32:43.592Z,10.25
2019-05-06T01:35:13.896Z,12.53
2019-05-06T01:37:44.110Z,10.43
2019-05-06T01:40:34.583Z,11.55
2019-05-06T01:43:04.457Z,10.80
2019-05-06T01:45:34.850Z,10.70
2019-05-06T01:48:04.028Z,10.25
2019-05-06T01:50:34.329Z,10.35
2019-05-06T01:53:04.971Z,10.72
2019-05-06T01:55:34.290Z,11.78
2019-05-06T01:58:02.522Z,8.55
2019-05-06T02:00:30.582Z,8.13
2019-05-06T02:02:58.772Z,9.23
2019-05-06T02:05:26.849Z,8.68
2019-05-06T02:07:56.437Z,8.53
2019-05-06T02:10:24.570Z,7.60
2019-05-06T02:12:54.111Z,8.18
2019-05-06T02:15:24.034Z,8.58
2019-05-06T02:17:52.223Z,6.80
2019-05-06T02:20:20.429Z,8.50
2019-05-06T02:22:50.195Z,8.20
2019-05-06T02:25:24.442Z,9.27
2019-05-06T02:27:54.158Z,7.45
2019-05-06T02:30:25.280Z,7.75
2019-05-06T02:32:58.154Z,7.12
2019-05-06T02:35:34.809Z,8.65
2019-05-06T02:38:04.805Z,7.28
2019-05-06T02:40:33.385Z,8.88
2019-05-06T02:43:03.277Z,8.50
2019-05-06T02:45:33.449Z,7.58
2019-05-06T02:48:09.227Z,7.60
2019-05-06T02:50:46.001Z,7.58
2019-05-06T02:53:15.819Z,8.65
2019-05-06T02:55:43.926Z,12.05
2019-05-06T02:58:14.898Z,7.50
2019-05-06T03:00:43.285Z,7.13
2019-05-06T03:03:14.079Z,7.95
2019-05-06T03:05:43.951Z,8.48
2019-05-06T03:08:13.476Z,9.60
2019-05-06T03:10:44.317Z,9.18
2019-05-06T03:13:14.174Z,7.53
2019-05-06T03:15:43.382Z,8.70
2019-05-06T03:18:14.741Z,10.82
2019-05-06T03:20:44.147Z,9.70
2019-05-06T03:23:14.384Z,8.88
2019-05-06T03:25:44.420Z,9.65
2019-05-06T03:28:13.246Z,8.38
2019-05-06T03:30:45.754Z,9.23
2019-05-06T03:33:38.454Z,9.05
2019-05-06T03:35:58.004Z,9.47
2019-05-06T03:38:13.720Z,9.20
2019-05-06T03:40:45.745Z,9.85
2019-05-06T03:43:13.187Z,7.55
2019-05-06T03:45:43.959Z,10.00
2019-05-06T03:48:29.119Z,9.25
2019-05-06T03:50:57.223Z,9.63
2019-05-06T03:53:27.490Z,9.68
2019-05-06T03:55:56.668Z,7.83
2019-05-06T03:58:26.877Z,8.98
2019-05-06T04:00:55.915Z,9.18
2019-05-06T04:03:41.978Z,9.38
2019-05-06T04:05:55.965Z,8.98
2019-05-06T04:08:24.316Z,8.53
2019-05-06T04:10:53.852Z,9.70
2019-05-06T04:13:23.211Z,10.03
2019-05-06T04:16:05.836Z,9.63
2019-05-06T04:18:35.670Z,7.30
2019-05-06T04:21:24.006Z,7.90
2019-05-06T04:23:55.767Z,8.45
2019-05-06T04:26:32.958Z,7.22
2019-05-06T04:29:03.864Z,7.53
2019-05-06T04:31:33.541Z,8.43
2019-05-06T04:34:09.819Z,6.78
2019-05-06T04:36:33.805Z,8.23
2019-05-06T04:39:04.181Z,10.10
2019-05-06T04:41:34.081Z,8.08
2019-05-06T04:44:02.910Z,8.33
2019-05-06T04:46:34.404Z,10.03
2019-05-06T04:49:03.970Z,8.58
2019-05-06T04:51:36.857Z,7.37
2019-05-06T04:54:04.223Z,7.53
2019-05-06T04:56:33.369Z,6.72
2019-05-06T04:59:05.775Z,11.48
2019-05-06T05:01:34.077Z,9.10
2019-05-06T05:04:03.554Z,7.55
2019-05-06T05:06:32.834Z,6.35
2019-05-06T05:09:02.909Z,9.40
2019-05-06T05:11:43.374Z,8.83
2019-05-06T05:14:19.670Z,8.88
2019-05-06T05:17:03.758Z,8.28
2019-05-06T05:19:32.766Z,8.25
2019-05-06T05:22:07.225Z,6.90
2019-05-06T05:24:36.748Z,7.08
2019-05-06T05:27:05.744Z,8.33
2019-05-06T05:29:34.359Z,5.53
2019-05-06T05:32:02.603Z,6.97
2019-05-06T05:34:39.567Z,7.80
2019-05-06T05:37:00.565Z,7.17
2019-05-06T05:39:28.681Z,7.10
2019-05-06T05:41:58.557Z,7.25
2019-05-06T05:44:28.326Z,6.90
2019-05-06T05:46:56.515Z,9.15
2019-05-06T05:49:39.569Z,7.35
2019-05-06T05:52:07.846Z,9.23
2019-05-06T05:54:36.091Z,7.00
2019-05-06T05:57:04.294Z,8.43
2019-05-06T05:59:33.062Z,7.12
2019-05-06T06:02:03.874Z,7.23
2019-05-06T06:06:43.248Z,8.33
2019-05-06T06:09:12.745Z,6.67
2019-05-06T06:11:53.267Z,6.80
2019-05-06T06:14:43.799Z,6.08
2019-05-06T06:17:23.257Z,6.17
2019-05-06T06:19:53.418Z,8.38
2019-05-06T06:22:23.833Z,6.42
2019-05-06T06:24:52.564Z,8.38
2019-05-06T06:27:22.363Z,7.35
2019-05-06T06:29:52.584Z,7.65
2019-05-06T06:32:24.813Z,6.57
2019-05-06T06:35:10.601Z,6.67
2019-05-06T06:37:48.792Z,7.75
2019-05-06T06:40:18.736Z,5.72
2019-05-06T06:42:48.597Z,5.70
2019-05-06T06:45:16.781Z,5.35
2019-05-06T06:47:44.936Z,5.47
2019-05-06T06:50:14.098Z,7.25
2019-05-06T06:52:42.520Z,6.37
2019-05-06T06:55:12.825Z,4.72
2019-05-06T06:57:59.013Z,6.30
2019-05-06T07:00:28.767Z,5.20
2019-05-06T07:03:04.425Z,4.37
2019-05-06T07:05:37.252Z,4.40
2019-05-06T07:08:05.403Z,3.75
2019-05-06T07:10:45.743Z,5.60
2019-05-06T07:13:14.624Z,5.12
2019-05-06T07:15:42.846Z,3.65
2019-05-06T07:18:13.308Z,4.25
2019-05-06T07:21:03.272Z,3.65
2019-05-06T07:23:32.690Z,2.47
2019-05-06T07:26:03.029Z,2.45
2019-05-06T07:28:32.634Z,2.77
2019-05-06T07:31:14.977Z,4.17
2019-05-06T07:33:33.512Z,3.42
2019-05-06T07:36:02.276Z,2.92
2019-05-06T07:38:32.725Z,3.67
2019-05-06T07:41:18.042Z,3.22
2019-05-06T07:43:57.994Z,2.50
2019-05-06T07:46:39.680Z,2.47
2019-05-06T07:49:07.874Z,2.85
2019-05-06T07:51:36.111Z,2.50
2019-05-06T07:54:04.326Z,3.10
2019-05-06T07:56:32.498Z,1.80
2019-05-06T07:59:03.253Z,2.77
2019-05-06T08:01:33.275Z,2.08
2019-05-06T08:04:02.534Z,1.83
2019-05-06T08:06:32.137Z,2.53
2019-05-06T08:09:00.489Z,1.75
2019-05-06T08:11:29.060Z,2.20
2019-05-06T08:13:58.463Z,2.47
2019-05-06T08:16:28.628Z,2.27
2019-05-06T08:18:56.887Z,1.92
2019-05-06T08:21:29.297Z,2.27
2019-05-06T08:23:57.560Z,1.57
2019-05-06T08:26:25.828Z,2.87
2019-05-06T08:28:54.023Z,1.50
2019-05-06T08:31:22.944Z,1.77
2019-05-06T08:33:52.396Z,1.80
2019-05-06T08:36:22.682Z,3.05
2019-05-06T08:38:57.948Z,2.77
2019-05-06T08:41:26.841Z,2.33
2019-05-06T08:43:55.807Z,2.10
2019-05-06T08:46:24.135Z,2.00
2019-05-06T08:48:52.631Z,2.85
2019-05-06T08:51:39.614Z,2.70
2019-05-06T08:54:15.266Z,2.77
2019-05-06T08:56:43.639Z,3.12
2019-05-06T08:59:13.891Z,2.97
2019-05-06T09:01:46.464Z,2.33
2019-05-06T09:04:16.307Z,2.67
2019-05-06T09:06:44.806Z,3.47
2019-05-06T09:09:13.249Z,3.80
2019-05-06T09:11:43.208Z,3.37
2019-05-06T09:14:13.629Z,3.73
2019-05-06T09:16:43.691Z,4.22
2019-05-06T09:19:12.929Z,4.00
2019-05-06T09:21:45.705Z,4.50
2019-05-06T09:24:12.834Z,3.58
2019-05-06T09:26:43.202Z,3.00
2019-05-06T09:29:19.398Z,4.60
2019-05-06T09:31:49.354Z,4.70
2019-05-06T09:34:37.504Z,4.58
2019-05-06T09:37:13.975Z,4.37
2019-05-06T09:39:43.940Z,3.87
2019-05-06T09:42:12.949Z,4.22
2019-05-06T09:44:42.726Z,3.60
2019-05-06T09:47:12.966Z,4.60
2019-05-06T09:49:42.882Z,3.80
2019-05-06T09:52:13.001Z,4.58
2019-05-06T09:54:54.707Z,4.47
2019-05-06T09:57:24.578Z,5.42
2019-05-06T09:59:52.824Z,4.78
2019-05-06T10:02:23.098Z,4.35
2019-05-06T10:04:52.405Z,5.00
2019-05-06T10:07:22.557Z,6.92
2019-05-06T10:09:52.597Z,7.75
2019-05-06T10:12:21.117Z,6.67
2019-05-06T10:14:49.395Z,7.05
2019-05-06T10:17:17.753Z,9.63
2019-05-06T10:19:46.202Z,7.30
2019-05-06T10:22:14.460Z,8.80
2019-05-06T10:24:43.460Z,6.17
2019-05-06T10:27:12.255Z,6.55
2019-05-06T10:29:46.215Z,8.35
2019-05-06T10:32:28.046Z,6.62
2019-05-06T10:34:56.312Z,6.93
2019-05-06T10:37:33.500Z,7.35
2019-05-06T10:40:09.415Z,7.97
2019-05-06T10:42:39.228Z,7.58
2019-05-06T10:45:12.409Z,7.75
2019-05-06T10:47:42.341Z,6.13
2019-05-06T10:50:12.599Z,7.60
2019-05-06T10:52:44.950Z,15.63
2019-05-06T10:55:13.177Z,12.05
2019-05-06T10:57:43.193Z,8.10
2019-05-06T11:00:13.664Z,9.20
2019-05-06T11:02:46.414Z,7.47
2019-05-06T11:05:14.695Z,8.33
2019-05-06T11:07:43.176Z,7.75
2019-05-06T11:10:21.654Z,6.30
2019-05-06T11:12:43.069Z,7.15
2019-05-06T11:15:12.931Z,8.50
2019-05-06T11:17:43.423Z,8.53
2019-05-06T11:20:13.973Z,8.00
2019-05-06T11:22:43.570Z,9.73
2019-05-06T11:25:12.373Z,9.05
2019-05-06T11:27:44.303Z,10.82
2019-05-06T11:30:12.812Z,8.47
2019-05-06T11:32:45.514Z,6.25
2019-05-06T11:35:15.414Z,13.98
2019-05-06T11:37:49.994Z,12.95
2019-05-06T11:40:16.976Z,8.78
2019-05-06T11:42:45.238Z,9.73
2019-05-06T11:45:13.657Z,11.30
2019-05-06T11:47:42.177Z,9.78
2019-05-06T11:50:12.950Z,11.00
2019-05-06T11:52:43.300Z,9.50
2019-05-06T11:55:13.887Z,10.50
2019-05-06T11:57:44.634Z,7.50
2019-05-06T12:00:14.657Z,7.60
2019-05-06T12:02:48.002Z,6.25
2019-05-06T12:05:13.033Z,6.40
2019-05-06T12:07:43.389Z,6.47
2019-05-06T12:10:12.983Z,5.78
2019-05-06T12:12:42.532Z,5.97
2019-05-06T12:15:12.619Z,5.78
2019-05-06T12:17:42.177Z,7.20
2019-05-06T12:20:13.086Z,7.92
2019-05-06T12:22:42.387Z,8.48
2019-05-06T12:25:15.075Z,8.15
2019-05-06T12:27:45.901Z,8.53
2019-05-06T12:30:14.971Z,8.38
2019-05-06T12:32:52.653Z,10.25
2019-05-06T12:35:20.949Z,8.20
2019-05-06T12:37:53.054Z,10.95
2019-05-06T12:40:21.558Z,9.88
2019-05-06T12:42:53.499Z,10.30
2019-05-06T12:45:23.282Z,11.63
2019-05-06T12:47:59.425Z,11.88
2019-05-06T12:50:27.603Z,12.40
2019-05-06T12:52:57.875Z,9.88
2019-05-06T12:55:25.635Z,9.88
2019-05-06T12:57:54.016Z,11.48
2019-05-06T13:00:23.609Z,10.38
2019-05-06T13:02:53.080Z,9.98
2019-05-06T13:05:23.472Z,14.35
2019-05-06T13:07:52.764Z,11.60
2019-05-06T13:10:23.152Z,11.47
2019-05-06T13:12:54.079Z,11.57
2019-05-06T13:15:24.470Z,10.70
2019-05-06T13:17:53.640Z,11.40
2019-05-06T13:20:22.884Z,10.38
2019-05-06T13:22:53.623Z,11.70
2019-05-06T13:25:23.357Z,10.82
2019-05-06T13:27:53.361Z,12.10
2019-05-06T13:30:22.722Z,11.63
2019-05-06T13:32:59.230Z,13.72
2019-05-06T13:35:32.556Z,19.65
2019-05-06T13:38:00.129Z,17.40
2019-05-06T13:40:28.457Z,17.15
2019-05-06T13:42:59.837Z,15.28
2019-05-06T13:45:28.124Z,12.53
2019-05-06T13:47:58.051Z,11.57
2019-05-06T13:50:38.409Z,11.55
2019-05-06T13:53:11.180Z,11.88
2019-05-06T13:55:36.744Z,10.40
2019-05-06T13:58:05.141Z,11.93
2019-05-06T14:00:34.895Z,12.35
2019-05-06T14:03:03.112Z,10.85
2019-05-06T14:05:33.005Z,11.93
2019-05-06T14:08:04.580Z,13.55
2019-05-06T14:10:32.767Z,9.78
2019-05-06T14:13:02.406Z,10.00
2019-05-06T14:15:32.509Z,10.93
2019-05-06T14:18:02.696Z,10.57
2019-05-06T14:20:33.394Z,10.55
2019-05-06T14:23:02.236Z,11.48
2019-05-06T14:25:48.046Z,10.68
2019-05-06T14:28:32.382Z,11.35
2019-05-06T14:31:05.639Z,10.47
2019-05-06T14:33:33.937Z,12.33
2019-05-06T14:36:03.194Z,10.23
2019-05-06T14:38:32.764Z,13.05
2019-05-06T14:41:04.421Z,9.50
2019-05-06T14:43:32.779Z,9.77
2019-05-06T14:46:01.159Z,9.68
2019-05-06T14:48:29.361Z,11.83
2019-05-06T14:50:57.624Z,10.18
2019-05-06T14:53:25.812Z,10.43
2019-05-06T14:55:55.728Z,8.93
2019-05-06T14:58:23.913Z,10.10
2019-05-06T15:00:53.347Z,9.13
2019-05-06T15:03:22.138Z,8.28
2019-05-06T15:05:50.365Z,8.48
2019-05-06T15:08:18.791Z,9.55
2019-05-06T15:10:49.400Z,7.40
2019-05-06T15:13:16.816Z,7.57
2019-05-06T15:15:45.121Z,7.25
2019-05-06T15:18:13.435Z,12.37
2019-05-06T15:20:42.499Z,7.28
2019-05-06T15:23:12.959Z,7.65
2019-05-06T15:25:40.881Z,6.58
2019-05-06T15:28:09.096Z,8.33
2019-05-06T15:30:48.360Z,8.38
2019-05-06T15:33:19.331Z,6.90
2019-05-06T15:36:06.542Z,8.50
2019-05-06T15:38:34.973Z,6.87
2019-05-06T15:41:05.694Z,8.08
2019-05-06T15:43:35.015Z,7.40
2019-05-06T15:46:03.495Z,8.50
2019-05-06T15:48:33.043Z,8.98
2019-05-06T15:51:02.112Z,9.38
2019-05-06T15:53:32.688Z,8.53
2019-05-06T15:56:00.277Z,7.20
2019-05-06T15:58:28.564Z,9.35
2019-05-06T16:00:58.237Z,11.15
2019-05-06T16:03:26.441Z,6.87
2019-05-06T16:05:55.304Z,8.75
2019-05-06T16:08:24.552Z,8.88
2019-05-06T16:10:58.211Z,9.05
2019-05-06T16:13:22.820Z,8.88
2019-05-06T16:15:53.203Z,7.80
2019-05-06T16:18:23.459Z,6.50
2019-05-06T16:20:51.888Z,6.87
2019-05-06T16:23:23.101Z,6.65
2019-05-06T16:25:52.396Z,6.80
2019-05-06T16:28:22.629Z,8.70
2019-05-06T16:30:53.202Z,6.97
2019-05-06T16:33:22.101Z,6.97
2019-05-06T16:35:52.222Z,6.05
2019-05-06T16:38:22.820Z,8.60
2019-05-06T16:40:50.551Z,9.73
2019-05-06T16:43:18.839Z,12.37
2019-05-06T16:45:47.379Z,9.25
2019-05-06T16:48:15.652Z,6.63
2019-05-06T16:50:45.225Z,7.42
2019-05-06T16:53:13.424Z,6.05
2019-05-06T16:55:55.711Z,5.30
2019-05-06T16:58:28.517Z,5.70
2019-05-06T17:00:58.378Z,5.25
2019-05-06T17:03:32.497Z,4.75
2019-05-06T17:06:02.508Z,3.87
2019-05-06T17:08:35.947Z,4.30
2019-05-06T17:11:04.459Z,3.95
2019-05-06T17:13:33.515Z,4.85
2019-05-06T17:16:02.571Z,5.10
2019-05-06T17:18:32.499Z,4.35
2019-05-06T17:21:00.841Z,6.37
2019-05-06T17:23:29.015Z,4.87
2019-05-06T17:25:57.212Z,6.12
2019-05-06T17:28:33.671Z,6.37
2019-05-06T17:31:22.301Z,9.35
2019-05-06T17:34:06.839Z,9.80
2019-05-06T17:36:37.725Z,9.30
2019-05-06T17:39:08.906Z,11.67
2019-05-06T17:41:47.605Z,9.45
2019-05-06T17:44:11.905Z,13.68
2019-05-06T17:46:58.199Z,14.30
2019-05-06T17:49:37.192Z,11.12
2019-05-06T17:52:13.052Z,9.40
2019-05-06T17:54:43.033Z,13.43
2019-05-06T17:57:12.324Z,12.28
2019-05-06T17:59:42.035Z,9.53
2019-05-06T18:02:12.079Z,13.83
2019-05-06T18:04:42.862Z,13.15
2019-05-06T18:07:12.096Z,13.03
2019-05-06T18:09:42.437Z,11.93
2019-05-06T18:12:12.226Z,13.35
2019-05-06T18:14:40.445Z,11.60
2019-05-06T18:17:08.615Z,12.90
2019-05-06T18:19:36.885Z,13.00
2019-05-06T18:22:05.110Z,11.93
2019-05-06T18:24:34.356Z,14.18
2019-05-06T18:27:02.848Z,14.13
2019-05-06T18:29:33.387Z,13.38
2019-05-06T18:32:03.875Z,12.88
2019-05-06T18:34:33.415Z,11.50
2019-05-06T18:37:03.301Z,15.20
2019-05-06T18:39:33.731Z,14.30
2019-05-06T18:42:15.556Z,16.35
2019-05-06T18:44:33.232Z,17.85
2019-05-06T18:47:02.742Z,15.13
2019-05-06T18:49:33.606Z,17.40
2019-05-06T18:52:02.234Z,16.40
2019-05-06T18:54:33.919Z,16.75
2019-05-06T18:57:04.780Z,17.10
2019-05-06T18:59:33.133Z,16.40
2019-05-06T19:02:02.118Z,14.38
2019-05-06T19:04:33.415Z,14.30
2019-05-06T19:07:12.435Z,14.45
2019-05-06T19:09:39.656Z,14.85
2019-05-06T19:12:07.962Z,12.60
2019-05-06T19:14:36.218Z,14.30
2019-05-06T19:17:04.469Z,12.05
2019-05-06T19:19:34.950Z,14.45
2019-05-06T19:22:03.016Z,13.33
2019-05-06T19:24:33.660Z,13.03
2019-05-06T19:27:02.213Z,11.90
2019-05-06T19:29:32.514Z,13.48
2019-05-06T19:32:00.166Z,13.40
2019-05-06T19:34:28.384Z,14.33
2019-05-06T19:36:56.558Z,11.20
2019-05-06T19:39:24.800Z,13.28
2019-05-06T19:41:52.901Z,14.20
2019-05-06T19:44:22.061Z,15.08
2019-05-06T19:46:50.435Z,16.67
2019-05-06T19:49:18.628Z,12.57
2019-05-06T19:51:47.880Z,15.78
2019-05-06T19:54:16.167Z,16.90
2019-05-06T19:56:44.444Z,15.00
2019-05-06T19:59:13.009Z,14.60
2019-05-06T20:01:42.917Z,16.13
2019-05-06T20:04:13.010Z,15.45
2019-05-06T20:06:45.506Z,15.50
2019-05-06T20:09:33.052Z,15.25
2019-05-06T20:12:15.014Z,13.55
2019-05-06T20:14:43.121Z,15.25
2019-05-06T20:17:12.892Z,18.27
2019-05-06T20:19:42.575Z,17.92
2019-05-06T20:22:12.878Z,14.13
2019-05-06T20:24:42.564Z,14.98
2019-05-06T20:27:13.278Z,12.50
2019-05-06T20:29:42.785Z,14.47
2019-05-06T20:32:12.306Z,14.83
2019-05-06T20:34:42.845Z,14.03
2019-05-06T20:37:12.891Z,10.35
2019-05-06T20:39:43.340Z,12.03
2019-05-06T20:42:12.747Z,13.93
2019-05-06T20:44:43.142Z,11.60
2019-05-06T20:47:12.920Z,14.33
2019-05-06T20:49:42.960Z,12.28
2019-05-06T20:52:12.286Z,11.70
2019-05-06T20:54:42.622Z,14.03
2019-05-06T20:57:12.248Z,11.00
2019-05-06T20:59:42.005Z,13.05
2019-05-06T21:02:12.357Z,12.18
2019-05-06T21:04:40.186Z,10.10
2019-05-06T21:07:08.313Z,13.40
2019-05-06T21:09:36.437Z,13.60
2019-05-06T21:12:04.643Z,11.05
2019-05-06T21:14:32.779Z,11.33
2019-05-06T21:17:02.565Z,12.60
2019-05-06T21:19:32.941Z,13.58
2019-05-06T21:22:02.311Z,12.73
2019-05-06T21:24:32.538Z,14.70
2019-05-06T21:27:02.638Z,13.45
2019-05-06T21:29:32.345Z,13.13
2019-05-06T21:32:02.591Z,10.43
2019-05-06T21:34:30.207Z,13.30
2019-05-06T21:36:58.369Z,8.45
2019-05-06T21:39:26.610Z,13.22
2019-05-06T21:41:54.708Z,13.50
2019-05-06T21:44:23.011Z,10.32
2019-05-06T21:46:51.161Z,11.15
2019-05-06T21:49:19.281Z,12.82
2019-05-06T21:51:47.347Z,11.50
2019-05-06T21:54:15.468Z,13.20
2019-05-06T21:56:43.544Z,10.88
2019-05-06T21:59:12.904Z,12.33
2019-05-06T22:01:42.987Z,14.23
2019-05-06T22:04:12.842Z,11.43
2019-05-06T22:06:42.794Z,12.37
2019-05-06T22:09:11.499Z,12.55
2019-05-06T22:11:42.128Z,11.37
2019-05-06T22:14:09.555Z,12.58
2019-05-06T22:16:37.627Z,13.35
2019-05-06T22:19:05.838Z,14.07
2019-05-06T22:21:35.216Z,13.10
2019-05-06T22:24:04.911Z,10.75
2019-05-06T22:26:33.081Z,15.90
2019-05-06T22:29:02.087Z,13.45
2019-05-06T22:31:30.401Z,12.98
2019-05-06T22:33:58.601Z,13.83
2019-05-06T22:36:26.878Z,11.65
2019-05-06T22:38:55.000Z,12.85
2019-05-06T22:41:25.432Z,11.35
2019-05-06T22:43:53.299Z,13.62
2019-05-06T22:46:23.382Z,13.68
2019-05-06T22:48:54.052Z,13.00
2019-05-06T22:51:22.886Z,12.43
2019-05-06T22:53:53.210Z,11.03
2019-05-06T22:56:22.830Z,11.15
2019-05-06T22:58:52.430Z,12.73
2019-05-06T23:01:40.552Z,11.38
2019-05-06T23:04:09.130Z,8.37
2019-05-06T23:06:37.401Z,11.30
2019-05-06T23:09:07.643Z,11.93
2019-05-06T23:11:36.441Z,11.73
2019-05-06T23:14:04.589Z,10.85
2019-05-06T23:16:34.853Z,10.45
2019-05-06T23:19:02.528Z,11.35
2019-05-06T23:21:30.643Z,11.53
2019-05-06T23:23:58.810Z,12.43
2019-05-06T23:26:26.927Z,12.73
2019-05-06T23:28:54.993Z,10.30
2019-05-06T23:31:24.483Z,12.95
2019-05-06T23:33:53.473Z,12.18
2019-05-06T23:36:22.924Z,11.53
2019-05-06T23:39:09.496Z,11.53
2019-05-06T23:41:57.206Z,12.78
2019-05-06T23:44:46.202Z,10.80
2019-05-06T23:47:33.467Z,11.70
2019-05-06T23:50:22.879Z,11.15
2019-05-06T23:53:08.800Z,11.73
2019-05-06T23:55:55.258Z,13.08
2019-05-06T23:58:22.919Z,11.05
